Página principal
METAR-TAF:

METAR-TAF

Aeroportos :

Port of Spain, Trinidad, Trinidad e Tobago

Aeroporto Internacional de Piarco

latitude: 10-37N, longitude: 061-21W, altura: 12 m

Observação actual do tempo

O boletim foi feito há 36 minutos, às 08:00 UTC
Vento calmo
Temperatura 23°C
Humidade 94%
Pressão 1013 hPa
Visibilidade 10 km ou mais
Poucas nuvensa uma altura de 1600 ft

METAR: TTPP 200800Z 00000KT 9999 FEW016 23/22 Q1013 NOSIG

Hora: 04:36 (08:36 UTC)

Previsão

O boletim foi feito há 4 horas e 36 minutos, às 04:00 UTC
Previsão válida de 20 às 06 UTC a 21 às 06 UTC
Vento 5 kt de este
Visibilidade 10 km ou mais
Poucas nuvensa uma altura de 1600 ft
Temporariamente
de 20 às 06 UTC a 20 às 14 UTC
Visibilidade: 9000 m
Nuvens dispersasa uma altura de 1600 ft
aguaceiros de chuva
Tornando-se
de 20 às 12 UTC a 20 às 14 UTC
Vento 12 kt de es-sudeste
Nuvens dispersasa uma altura de 2000 ft

TAF: TTPP 200400Z 2006/2106 10005KT 9999 FEW016 TEMPO 2006/2014 9000 SHRA SCT016 BECMG 2012/2014 11012KT SCT020

Observações e previsões do tempo de mais de 4000 aeroportos (mensagens METAR e TAF).

As estações disponíveis são os pontos amarelos e vermelhos sobre o mapa.

Mova o rato sobre o mapa para ver o nome da estação.

Depois clique no ponto para visualizar as observações e previsões meteorológicas.

Para alterar o mapa : clique nos botões verdes com uma cruz preta para aumentar o zoom; no botão verde com uma pitada de zoom; ou nas setas verdes para mapas adjacentes.


METAR-TAF: